Almora, Minnesota
Current Conditions -  °F | °C
As of 2:14 PM on Friday 19 Dec 2014 (Local Time) from KADC Reporting Station
Haze Haze  
Wind Chill: -7°   Ceiling: 200
Heat Index: -4°   Visibility: 0.75mi
Dew Point: -5°   Wind: 5mph
Humidity: 93%   Direction: 120°ESE
Pressure: 30.07"   Gusts: NA
Location:  46.3245°N, 95.3401°W
Report Text: KADC 192014Z AUTO 12004KT 3/4SM BR OVC002 M04/M05 A3007 RMK AO2
Loading
Personal Weather Stations






























Interactive Weather Map New forecast layout! Learn more

10-Day Weather Forecast

Advertisements
Track Severe Weather on mobile